Time;durP1;ratioP1;P1;durP2;ratioP2;P2;SDS_P1;SDS_P2;PMS_P1;PMS_P2;Temp;Humidity;BMP_temperature;BMP_pressure;BME280_temperature;BME280_humidity;BME280_pressure;Samples;Min_cycle;Max_cycle;Signal;HPM_P1;HPM_P2
2021/04/29 00:00:16;;;;;;;5.13;4.63;;;;;;;11.42;100.00;95350.28;5069377;28;20251;-59
2021/04/29 00:02:43;;;;;;;5.93;4.40;;;;;;;11.29;100.00;95343.75;5063759;28;20206;-61
2021/04/29 00:05:12;;;;;;;5.60;4.67;;;;;;;11.32;100.00;95342.41;5059824;28;20180;-60
2021/04/29 00:07:38;;;;;;;5.13;4.67;;;;;;;11.29;100.00;95343.75;5048500;28;20644;-61
2021/04/29 00:10:07;;;;;;;6.20;4.50;;;;;;;11.25;100.00;95342.72;5052719;28;20238;-59
2021/04/29 00:12:34;;;;;;;5.10;4.60;;;;;;;11.27;100.00;95338.75;5065755;28;20229;-60
2021/04/29 00:15:00;;;;;;;6.00;4.87;;;;;;;11.18;100.00;95336.94;5069349;28;20688;-60
2021/04/29 00:17:25;;;;;;;8.03;4.97;;;;;;;11.17;100.00;95332.75;5069952;28;20180;-60
2021/04/29 00:19:51;;;;;;;5.07;4.67;;;;;;;11.16;100.00;95336.41;5069213;28;20285;-57
2021/04/29 00:22:16;;;;;;;6.90;5.17;;;;;;;11.16;100.00;95339.03;5055153;28;20259;-59
2021/04/29 00:24:42;;;;;;;6.17;5.23;;;;;;;11.19;100.00;95335.91;5070568;28;20223;-60
2021/04/29 00:27:07;;;;;;;6.57;5.30;;;;;;;11.17;100.00;95332.75;5060718;28;20190;-61
2021/04/29 00:29:33;;;;;;;6.60;5.90;;;;;;;11.15;100.00;95334.84;5065575;28;20176;-60
2021/04/29 00:31:58;;;;;;;7.87;6.40;;;;;;;11.09;100.00;95330.69;5057337;28;20216;-60
2021/04/29 00:34:24;;;;;;;6.67;5.90;;;;;;;11.08;100.00;95343.00;5055944;28;20675;-60
2021/04/29 00:36:50;;;;;;;8.40;5.87;;;;;;;11.09;100.00;95343.81;5055083;28;20622;-59
2021/04/29 00:39:15;;;;;;;8.73;6.50;;;;;;;11.19;100.00;95344.56;5057444;28;20558;-55
2021/04/29 00:41:41;;;;;;;8.73;5.50;;;;;;;11.15;100.00;95347.97;5054445;28;20296;-58
2021/04/29 00:44:07;;;;;;;7.20;5.67;;;;;;;11.15;100.00;95350.59;5071765;28;20674;-59
2021/04/29 00:46:36;;;;;;;7.00;6.07;;;;;;;11.14;100.00;95346.41;5059559;28;20198;-58
2021/04/29 00:49:02;;;;;;;8.40;6.33;;;;;;;11.25;100.00;95348.75;5069148;28;20192;-56
2021/04/29 00:51:28;;;;;;;8.27;5.77;;;;;;;11.26;100.00;95352.13;5059572;28;20648;-57
2021/04/29 00:53:53;;;;;;;7.57;6.10;;;;;;;11.24;100.00;95354.25;5064465;28;20305;-60
2021/04/29 00:56:20;;;;;;;7.07;6.37;;;;;;;11.26;100.00;95352.91;5064778;28;20328;-59
2021/04/29 00:58:48;;;;;;;6.97;6.27;;;;;;;11.17;100.00;95348.50;5093042;28;20730;-61
2021/04/29 01:01:13;;;;;;;7.80;6.17;;;;;;;11.07;100.00;95349.31;5094729;28;20169;-60
2021/04/29 01:03:54;;;;;;;8.43;6.30;;;;;;;11.16;100.00;95354.78;5094840;28;20192;-60
2021/04/29 01:06:27;;;;;;;7.87;6.30;;;;;;;11.31;100.00;95359.22;5079487;28;20180;-59
2021/04/29 01:09:13;;;;;;;7.57;5.93;;;;;;;11.23;100.00;95360.53;5093600;28;20165;-60
2021/04/29 01:11:40;;;;;;;7.30;6.47;;;;;;;11.27;100.00;95359.75;5076491;28;20192;-56
2021/04/29 01:14:06;;;;;;;7.53;6.07;;;;;;;11.29;100.00;95362.13;5093981;28;20205;-59
2021/04/29 01:16:33;;;;;;;6.57;5.33;;;;;;;11.34;100.00;95371.81;5094528;28;20211;-60
2021/04/29 01:19:01;;;;;;;6.80;5.80;;;;;;;11.37;100.00;95368.66;5093623;28;20179;-59
2021/04/29 01:21:28;;;;;;;7.00;5.50;;;;;;;11.38;100.00;95367.59;5093658;28;20204;-60
2021/04/29 01:24:09;;;;;;;6.47;5.63;;;;;;;11.37;100.00;95371.28;5092913;28;20204;-59
2021/04/29 01:26:47;;;;;;;7.97;5.70;;;;;;;11.33;100.00;95376.25;5093995;28;20215;-58
2021/04/29 01:29:24;;;;;;;5.90;4.93;;;;;;;11.45;100.00;95373.34;5094020;28;20218;-60
2021/04/29 01:31:55;;;;;;;5.63;5.03;;;;;;;11.38;100.00;95370.22;5093519;28;20164;-58
2021/04/29 01:34:23;;;;;;;5.17;4.67;;;;;;;11.36;100.00;95367.09;5093889;28;20204;-58
2021/04/29 01:36:51;;;;;;;4.90;4.40;;;;;;;11.32;100.00;95373.91;5093594;28;20191;-59
2021/04/29 01:39:18;;;;;;;6.33;4.30;;;;;;;11.29;100.00;95372.59;5093852;28;20261;-62
2021/04/29 01:41:47;;;;;;;4.90;4.33;;;;;;;11.38;100.00;95375.47;5092484;28;20180;-61
2021/04/29 01:44:14;;;;;;;4.20;3.80;;;;;;;11.33;100.00;95375.47;5093727;28;20204;-59
2021/04/29 01:46:39;;;;;;;3.53;3.23;;;;;;;11.44;100.00;95379.63;5093691;28;20599;-59
2021/04/29 01:49:09;;;;;;;3.30;3.00;;;;;;;11.47;100.00;95373.88;5092891;28;20188;-58
2021/04/29 01:51:36;;;;;;;2.87;2.60;;;;;;;11.42;100.00;95377.31;5080343;28;20172;-58
2021/04/29 01:54:03;;;;;;;2.80;2.57;;;;;;;11.37;100.00;95384.41;5093022;28;20209;-58
2021/04/29 01:56:29;;;;;;;2.10;2.00;;;;;;;11.38;100.00;95381.50;5091225;28;20248;-59
2021/04/29 01:58:55;;;;;;;2.30;2.20;;;;;;;11.45;100.00;95378.59;5092080;28;20215;-58
2021/04/29 02:01:20;;;;;;;2.17;2.00;;;;;;;11.48;100.00;95391.97;5093582;28;20244;-58
2021/04/29 02:03:46;;;;;;;2.00;1.90;;;;;;;11.49;100.00;95390.13;5092821;28;20288;-59
2021/04/29 02:06:11;;;;;;;2.13;2.00;;;;;;;11.43;100.00;95394.59;5093352;28;20172;-58
2021/04/29 02:08:37;;;;;;;2.20;2.00;;;;;;;11.46;100.00;95396.69;5093691;28;20178;-56
2021/04/29 02:11:03;;;;;;;1.87;1.77;;;;;;;11.45;99.71;95396.97;5092461;28;20173;-60
2021/04/29 02:13:31;;;;;;;1.90;1.80;;;;;;;11.46;99.16;95401.16;5093239;28;20303;-59
2021/04/29 02:16:08;;;;;;;2.10;2.00;;;;;;;11.49;98.50;95408.50;5092376;28;20177;-58
2021/04/29 02:18:35;;;;;;;1.90;1.80;;;;;;;11.50;100.00;95400.34;5092327;28;20176;-59
2021/04/29 02:21:02;;;;;;;2.80;1.90;;;;;;;11.51;98.89;95409.03;5092712;28;20193;-57
2021/04/29 02:23:28;;;;;;;1.87;1.77;;;;;;;11.56;98.55;95414.25;5092799;28;20208;-59
2021/04/29 02:25:56;;;;;;;1.80;1.70;;;;;;;11.56;98.38;95420.28;5091184;28;20629;-60
2021/04/29 02:28:22;;;;;;;2.13;1.73;;;;;;;11.54;98.42;95418.97;5093095;28;20176;-60
2021/04/29 02:30:49;;;;;;;1.97;1.87;;;;;;;11.55;98.82;95420.56;5092003;28;20168;-61
2021/04/29 02:33:15;;;;;;;1.73;1.63;;;;;;;11.55;98.69;95418.72;5093665;28;20211;-60
2021/04/29 02:35:42;;;;;;;1.97;1.80;;;;;;;11.55;98.03;95416.09;5093308;28;20172;-61
2021/04/29 02:38:08;;;;;;;1.50;1.50;;;;;;;11.51;98.08;95415.06;5092412;28;20600;-61
2021/04/29 02:40:34;;;;;;;2.20;1.80;;;;;;;11.43;98.85;95420.03;5092834;28;20279;-57
2021/04/29 02:43:00;;;;;;;1.87;1.77;;;;;;;11.41;98.59;95424.78;5092147;28;20567;-59
2021/04/29 02:45:26;;;;;;;3.03;1.70;;;;;;;11.41;98.46;95420.34;5092933;28;20656;-60
2021/04/29 02:47:52;;;;;;;1.57;1.47;;;;;;;11.51;97.92;95417.69;5091978;28;20646;-59
2021/04/29 02:50:23;;;;;;;1.60;1.50;;;;;;;11.52;97.03;95423.72;5092056;28;20200;-58
2021/04/29 02:52:53;;;;;;;1.70;1.43;;;;;;;11.48;96.20;95438.44;5089739;28;20204;-56
2021/04/29 02:55:23;;;;;;;2.57;1.17;;;;;;;11.43;95.44;95446.28;5091835;28;20185;-56
2021/04/29 02:57:49;;;;;;;1.30;1.30;;;;;;;11.37;96.03;95435.00;5070235;28;20794;-59
2021/04/29 03:00:17;;;;;;;1.30;1.30;;;;;;;11.44;95.56;95446.03;5054825;28;20284;-60
2021/04/29 03:02:43;;;;;;;1.83;1.40;;;;;;;11.34;94.73;95456.53;5064433;28;20617;-60
2021/04/29 03:05:11;;;;;;;1.23;1.20;;;;;;;11.38;95.02;95447.06;5044073;28;20263;-58
2021/04/29 03:07:38;;;;;;;0.97;0.97;;;;;;;11.41;95.52;95472.00;5070360;28;20181;-60
2021/04/29 03:10:08;;;;;;;1.57;1.47;;;;;;;11.39;97.16;95481.97;5054531;28;20279;-58
2021/04/29 03:12:34;;;;;;;1.20;1.20;;;;;;;11.31;100.00;95495.63;5052175;28;20194;-60
2021/04/29 03:15:00;;;;;;;1.40;1.30;;;;;;;11.18;100.00;95489.06;5060702;28;20268;-61
2021/04/29 03:17:26;;;;;;;1.10;1.10;;;;;;;11.19;100.00;95494.06;5058254;28;20178;-57
2021/04/29 03:19:52;;;;;;;1.40;1.40;;;;;;;11.13;100.00;95494.31;5066924;28;20288;-60
2021/04/29 03:22:17;;;;;;;1.30;1.30;;;;;;;11.07;100.00;95490.88;5054790;28;20257;-60
2021/04/29 03:24:50;;;;;;;1.00;1.00;;;;;;;11.10;100.00;95498.22;5063477;28;20200;-60
2021/04/29 03:27:16;;;;;;;0.90;0.90;;;;;;;11.20;100.00;95500.84;5051797;28;20204;-60
2021/04/29 03:29:42;;;;;;;0.80;0.80;;;;;;;11.01;100.00;95491.13;5048722;28;20543;-59
2021/04/29 03:32:07;;;;;;;0.90;0.90;;;;;;;11.13;100.00;95502.16;5035604;28;20182;-60
2021/04/29 03:34:32;;;;;;;0.90;0.90;;;;;;;11.12;100.00;95503.22;5071008;28;20235;-60
2021/04/29 03:36:58;;;;;;;0.93;0.93;;;;;;;11.03;100.00;95505.56;5070189;28;20197;-60
2021/04/29 03:39:23;;;;;;;0.90;0.90;;;;;;;11.15;100.00;95502.69;5058085;28;20204;-59
2021/04/29 03:41:49;;;;;;;0.90;0.90;;;;;;;11.10;100.00;95510.53;5066829;28;20181;-60
2021/04/29 03:44:14;;;;;;;1.07;0.97;;;;;;;11.11;100.00;95512.91;5051938;28;20197;-60
2021/04/29 03:46:40;;;;;;;0.90;0.90;;;;;;;10.98;99.64;95516.03;5051690;28;20264;-57
2021/04/29 03:49:05;;;;;;;0.90;0.90;;;;;;;10.86;100.00;95526.00;5058959;28;20185;-60
2021/04/29 03:51:30;;;;;;;1.30;1.20;;;;;;;10.82;100.00;95527.53;5057383;28;20177;-59
2021/04/29 03:53:58;;;;;;;1.00;1.00;;;;;;;10.87;99.52;95530.16;5066793;28;20201;-60
2021/04/29 03:56:23;;;;;;;1.03;1.03;;;;;;;10.77;98.23;95530.94;5062277;28;20232;-59
2021/04/29 03:58:49;;;;;;;1.10;1.10;;;;;;;10.88;95.64;95538.81;5089623;28;20176;-60
2021/04/29 04:01:15;;;;;;;0.90;0.90;;;;;;;10.76;96.04;95544.28;5091060;28;20283;-60
2021/04/29 04:03:40;;;;;;;0.90;0.90;;;;;;;10.73;92.29;95552.69;5091121;28;20281;-60
2021/04/29 04:06:06;;;;;;;0.80;0.80;;;;;;;10.68;91.93;95544.81;5094420;28;20243;-59
2021/04/29 04:08:32;;;;;;;0.90;0.90;;;;;;;10.67;92.55;95548.47;5095144;28;20637;-56
2021/04/29 04:10:57;;;;;;;0.90;0.90;;;;;;;10.66;91.62;95545.06;5093663;28;20177;-58
2021/04/29 04:13:23;;;;;;;1.10;1.10;;;;;;;10.60;92.22;95547.91;5094812;28;20200;-59
2021/04/29 04:15:49;;;;;;;1.00;1.00;;;;;;;10.63;92.04;95558.69;5094491;28;20181;-59
2021/04/29 04:18:14;;;;;;;0.90;0.90;;;;;;;10.73;91.29;95565.78;5095265;28;20652;-58
2021/04/29 04:20:40;;;;;;;1.00;1.00;;;;;;;10.74;91.35;95569.97;5097313;28;20566;-58
2021/04/29 04:23:07;;;;;;;0.83;0.83;;;;;;;10.66;91.06;95573.09;5095646;28;20950;-58
2021/04/29 04:25:33;;;;;;;0.73;0.73;;;;;;;10.69;91.14;95573.38;5097706;28;20172;-56
2021/04/29 04:27:58;;;;;;;0.80;0.80;;;;;;;10.70;91.78;95584.66;5093812;28;20184;-59
2021/04/29 04:30:24;;;;;;;0.80;0.80;;;;;;;10.73;91.70;95577.06;5094783;28;20656;-55
2021/04/29 04:32:49;;;;;;;0.87;0.87;;;;;;;10.69;89.98;95577.81;5093005;28;20200;-55
2021/04/29 04:35:15;;;;;;;0.90;0.90;;;;;;;10.77;88.76;95572.88;5086716;28;20195;-56
2021/04/29 04:37:41;;;;;;;1.10;1.10;;;;;;;10.69;89.05;95580.44;5094331;28;20653;-59
2021/04/29 04:40:07;;;;;;;0.83;0.83;;;;;;;10.81;87.69;95573.16;5093387;28;20617;-57
2021/04/29 04:42:33;;;;;;;0.90;0.90;;;;;;;10.74;88.26;95585.72;5080283;28;20253;-55
2021/04/29 04:44:59;;;;;;;1.10;1.10;;;;;;;10.69;89.17;95588.31;5093591;28;20224;-56
2021/04/29 04:47:24;;;;;;;0.80;0.80;;;;;;;10.84;87.72;95583.91;5093954;28;20321;-57
2021/04/29 04:49:50;;;;;;;1.07;1.03;;;;;;;10.92;87.57;95580.00;5071709;28;20181;-57
2021/04/29 04:52:15;;;;;;;1.80;0.97;;;;;;;11.06;85.97;95578.47;5085896;28;20275;-55
2021/04/29 04:54:41;;;;;;;1.80;1.10;;;;;;;11.09;85.24;95588.41;5072080;28;20666;-59
2021/04/29 04:57:09;;;;;;;1.20;1.20;;;;;;;11.12;84.78;95585.28;5088908;28;20228;-60
2021/04/29 04:59:34;;;;;;;0.73;0.73;;;;;;;11.15;84.15;95591.84;5093837;28;20661;-59
2021/04/29 05:02:01;;;;;;;0.80;0.80;;;;;;;11.15;84.00;95589.22;5092964;28;20181;-60
2021/04/29 05:04:28;;;;;;;0.90;0.90;;;;;;;11.34;83.16;95600.03;5094171;28;20233;-60
2021/04/29 05:06:56;;;;;;;1.13;0.90;;;;;;;11.46;82.21;95606.59;5093280;28;20184;-59
2021/04/29 05:09:22;;;;;;;4.23;1.40;;;;;;;11.45;82.87;95607.66;5093553;28;20622;-59
2021/04/29 05:11:49;;;;;;;1.00;1.00;;;;;;;11.60;81.17;95617.34;5093273;28;20517;-56
2021/04/29 05:14:15;;;;;;;1.10;1.10;;;;;;;11.71;80.18;95612.91;5093562;28;20736;-60
2021/04/29 05:16:43;;;;;;;0.90;0.90;;;;;;;11.80;80.27;95621.88;5092531;28;20318;-60
2021/04/29 05:19:08;;;;;;;1.20;1.20;;;;;;;11.81;79.12;95618.22;5093178;28;20177;-60
2021/04/29 05:21:34;;;;;;;1.90;1.20;;;;;;;11.88;77.93;95618.72;5093560;28;20188;-60
2021/04/29 05:23:59;;;;;;;1.30;1.20;;;;;;;11.82;77.95;95625.81;5092247;28;20698;-62
2021/04/29 05:26:25;;;;;;;1.53;1.40;;;;;;;12.01;79.32;95621.63;5093552;28;20173;-66
2021/04/29 05:28:50;;;;;;;1.20;1.20;;;;;;;12.10;78.01;95627.09;5092714;28;20641;-68
2021/04/29 05:31:16;;;;;;;1.23;1.13;;;;;;;12.18;75.73;95623.16;5093594;28;20173;-61
2021/04/29 05:33:41;;;;;;;1.30;1.17;;;;;;;12.03;76.59;95626.59;5092797;28;20291;-62
2021/04/29 05:36:06;;;;;;;1.20;1.20;;;;;;;11.94;76.25;95626.34;5092210;28;20181;-60
2021/04/29 05:38:32;;;;;;;1.30;1.27;;;;;;;11.89;77.40;95617.66;5092901;28;20177;-64
2021/04/29 05:40:58;;;;;;;1.20;1.20;;;;;;;11.89;77.33;95607.97;5091531;28;20185;-63
2021/04/29 05:43:23;;;;;;;1.17;1.17;;;;;;;11.83;77.63;95613.47;5092806;28;20203;-63
2021/04/29 05:45:50;;;;;;;1.40;1.30;;;;;;;11.91;77.16;95618.22;5092170;28;20169;-61
2021/04/29 05:48:15;;;;;;;1.60;1.50;;;;;;;11.85;77.18;95614.78;5092886;28;20183;-61
2021/04/29 05:50:41;;;;;;;1.67;1.37;;;;;;;11.81;77.74;95620.84;5092217;28;20180;-61
2021/04/29 05:53:06;;;;;;;1.23;1.20;;;;;;;11.77;78.23;95620.56;5091367;28;20696;-61
2021/04/29 05:55:32;;;;;;;2.53;1.47;;;;;;;11.71;77.81;95618.94;5092228;28;20177;-60
2021/04/29 05:57:59;;;;;;;1.50;1.40;;;;;;;11.84;77.30;95626.34;5088810;28;20319;-61
2021/04/29 06:00:25;;;;;;;1.57;1.30;;;;;;;11.79;76.83;95626.34;5087677;28;20196;-61
2021/04/29 06:02:57;;;;;;;3.00;1.57;;;;;;;11.82;76.07;95638.13;5091538;28;20220;-59
2021/04/29 06:05:23;;;;;;;1.50;1.40;;;;;;;11.85;75.34;95641.06;5093073;28;20169;-61
2021/04/29 06:08:00;;;;;;;2.20;1.67;;;;;;;11.98;75.41;95637.88;5092204;28;20169;-59
2021/04/29 06:10:26;;;;;;;2.30;1.70;;;;;;;11.89;75.38;95643.94;5093091;28;20200;-62
2021/04/29 06:12:52;;;;;;;1.87;1.73;;;;;;;11.88;75.40;95648.38;5091183;28;20235;-64
2021/04/29 06:15:19;;;;;;;1.90;1.80;;;;;;;11.95;75.54;95643.66;5091493;28;20215;-62
2021/04/29 06:17:45;;;;;;;1.90;1.77;;;;;;;12.02;75.19;95635.53;5092535;28;20165;-63
2021/04/29 06:20:11;;;;;;;1.80;1.70;;;;;;;12.17;74.18;95646.03;5091618;28;20204;-61
2021/04/29 06:22:37;;;;;;;1.50;1.40;;;;;;;12.37;76.36;95635.47;5091550;28;20197;-67
2021/04/29 06:25:04;;;;;;;1.97;1.77;;;;;;;12.35;73.90;95632.34;5091010;28;20180;-63
2021/04/29 06:27:29;;;;;;;2.40;2.07;;;;;;;12.38;73.71;95631.81;5091625;28;20642;-62
2021/04/29 06:29:54;;;;;;;1.40;1.30;;;;;;;12.58;74.25;95633.59;5091431;28;20157;-68
2021/04/29 06:32:20;;;;;;;1.93;1.80;;;;;;;12.65;74.29;95634.09;5092238;28;20173;-66
2021/04/29 06:34:47;;;;;;;1.83;1.70;;;;;;;12.91;72.21;95635.59;5091644;28;20176;-62
2021/04/29 06:37:13;;;;;;;2.13;1.90;;;;;;;13.05;71.10;95638.44;5091885;28;20718;-62
2021/04/29 06:39:39;;;;;;;2.00;1.60;;;;;;;13.19;70.22;95636.03;5091745;28;20307;-63
2021/04/29 06:42:05;;;;;;;2.97;1.80;;;;;;;13.27;69.83;95643.34;5091331;28;20196;-62
2021/04/29 06:44:31;;;;;;;2.03;1.90;;;;;;;13.45;69.39;95637.47;5073093;28;20567;-62
2021/04/29 06:46:56;;;;;;;2.60;1.97;;;;;;;13.49;69.50;95630.59;5090926;28;20176;-61
2021/04/29 06:49:22;;;;;;;2.17;1.97;;;;;;;13.71;68.11;95630.97;5091441;28;20183;-62
2021/04/29 06:51:47;;;;;;;2.97;2.43;;;;;;;13.71;67.51;95635.44;5091741;28;20169;-62
2021/04/29 06:54:13;;;;;;;2.60;2.30;;;;;;;14.00;66.58;95633.66;5091153;28;20660;-62
2021/04/29 06:56:38;;;;;;;2.97;2.20;;;;;;;14.06;65.98;95631.75;5081332;28;20244;-62
2021/04/29 06:59:05;;;;;;;1.97;1.87;;;;;;;14.39;64.85;95635.44;5070784;28;20168;-61
2021/04/29 07:01:30;;;;;;;2.40;2.20;;;;;;;14.61;64.31;95634.97;5064212;28;20219;-61
2021/04/29 07:03:56;;;;;;;2.17;2.00;;;;;;;14.78;63.86;95638.72;5050733;28;20620;-61
2021/04/29 07:06:22;;;;;;;2.63;1.90;;;;;;;14.88;63.15;95640.47;5061498;28;20182;-61
2021/04/29 07:08:48;;;;;;;3.80;2.23;;;;;;;14.94;62.69;95641.97;5067344;28;20177;-61
2021/04/29 07:11:14;;;;;;;2.17;1.93;;;;;;;15.24;62.84;95640.84;5059503;28;20626;-60
2021/04/29 07:13:40;;;;;;;3.67;2.53;;;;;;;15.45;61.61;95646.63;5065320;28;20204;-61
2021/04/29 07:16:05;;;;;;;2.40;2.20;;;;;;;15.64;61.08;95655.38;5060844;28;20180;-61
2021/04/29 07:18:31;;;;;;;24.63;2.70;;;;;;;15.54;60.70;95653.69;5064462;28;20169;-61
2021/04/29 07:20:57;;;;;;;2.50;2.30;;;;;;;15.45;60.50;95655.34;5064406;28;20201;-63
2021/04/29 07:23:22;;;;;;;2.00;1.80;;;;;;;15.10;61.57;95651.28;5066991;28;20197;-61
2021/04/29 07:25:55;;;;;;;3.07;2.60;;;;;;;15.20;60.68;95653.81;5059713;28;20619;-61
2021/04/29 07:28:21;;;;;;;2.20;2.10;;;;;;;15.26;61.12;95654.53;5060578;28;20177;-61
2021/04/29 07:30:47;;;;;;;2.47;2.10;;;;;;;15.38;60.92;95657.53;5067303;28;20300;-60
2021/04/29 07:33:13;;;;;;;2.43;2.23;;;;;;;15.46;60.68;95664.03;5055463;28;20283;-61
2021/04/29 07:35:39;;;;;;;2.83;2.63;;;;;;;15.49;59.95;95666.13;5056575;28;20185;-60
2021/04/29 07:38:05;;;;;;;3.17;2.87;;;;;;;15.46;59.81;95670.13;5068830;28;20181;-61
2021/04/29 07:40:31;;;;;;;2.83;2.57;;;;;;;15.45;60.63;95655.34;5067917;28;20197;-62
2021/04/29 07:42:57;;;;;;;3.13;2.80;;;;;;;15.24;60.73;95668.03;5055230;28;20189;-59
2021/04/29 07:45:23;;;;;;;3.40;2.80;;;;;;;15.17;60.62;95669.44;5059695;28;20166;-60
2021/04/29 07:47:48;;;;;;;7.57;2.97;;;;;;;15.12;60.62;95672.91;5070094;28;20187;-61
2021/04/29 07:50:14;;;;;;;3.37;3.07;;;;;;;15.39;60.44;95669.66;5061839;28;20665;-64
2021/04/29 07:52:41;;;;;;;3.47;3.00;;;;;;;15.65;59.51;95676.25;5068197;28;20209;-62
2021/04/29 07:55:11;;;;;;;3.87;2.90;;;;;;;15.86;58.32;95675.94;5049729;28;20178;-62
2021/04/29 07:57:37;;;;;;;3.33;3.07;;;;;;;16.09;57.51;95675.84;5089064;28;20224;-63
2021/04/29 08:00:06;;;;;;;3.92;3.13;;;;;;;16.32;56.41;95671.53;5092784;28;20203;-63
2021/04/29 08:02:32;;;;;;;3.17;2.80;;;;;;;16.53;56.27;95672.75;5094714;28;20196;-63
2021/04/29 08:04:57;;;;;;;3.55;3.17;;;;;;;16.71;55.56;95673.00;5093658;28;20169;-63
2021/04/29 08:07:23;;;;;;;3.35;2.95;;;;;;;16.70;55.65;95672.22;5095224;28;20165;-63
2021/04/29 08:09:53;;;;;;;4.53;3.95;;;;;;;16.62;54.03;95684.25;5095141;28;20191;-63
2021/04/29 08:12:19;;;;;;;4.32;3.33;;;;;;;16.68;54.04;95681.50;5094629;28;20180;-63
2021/04/29 08:14:45;;;;;;;6.25;4.00;;;;;;;16.65;52.30;95685.53;5094494;28;20173;-63
2021/04/29 08:17:10;;;;;;;4.00;3.63;;;;;;;16.40;53.67;95680.63;5093672;28;20173;-63
2021/04/29 08:19:36;;;;;;;4.03;3.58;;;;;;;16.11;54.29;95680.81;5095364;28;20228;-62
2021/04/29 08:22:03;;;;;;;3.67;3.17;;;;;;;16.08;53.99;95682.19;5093944;28;20660;-62
2021/04/29 08:24:28;;;;;;;3.90;3.53;;;;;;;16.02;54.03;95691.28;5094969;28;20251;-62
2021/04/29 08:26:53;;;;;;;3.92;3.55;;;;;;;16.07;54.45;95695.69;5094061;28;20724;-62
2021/04/29 08:29:20;;;;;;;3.95;3.60;;;;;;;16.27;53.38;95695.41;5087477;28;20173;-63
2021/04/29 08:31:45;;;;;;;4.00;3.60;;;;;;;16.41;53.27;95695.44;5093992;28;20168;-63
2021/04/29 08:34:11;;;;;;;4.25;3.85;;;;;;;16.81;51.60;95693.97;5093970;28;20193;-64
2021/04/29 08:36:36;;;;;;;3.97;3.67;;;;;;;16.83;50.92;95695.25;5094528;28;20191;-63
2021/04/29 08:39:04;;;;;;;5.43;3.90;;;;;;;17.12;50.91;95686.25;5093531;28;20188;-64
2021/04/29 08:41:31;;;;;;;4.25;3.85;;;;;;;17.22;50.66;95696.66;5094430;28;20189;-64
2021/04/29 08:43:57;;;;;;;4.38;3.80;;;;;;;16.88;50.97;95695.19;5093181;28;20257;-64
2021/04/29 08:46:23;;;;;;;4.93;4.43;;;;;;;16.64;51.46;95694.53;5094334;28;20176;-64
2021/04/29 08:48:58;;;;;;;4.55;4.10;;;;;;;16.82;51.16;95699.00;5094368;28;20644;-64
2021/04/29 08:51:25;;;;;;;7.72;3.85;;;;;;;16.80;50.86;95705.63;5094697;28;20210;-63
2021/04/29 08:53:57;;;;;;;5.00;4.13;;;;;;;16.87;50.65;95698.09;5094236;28;20269;-64
2021/04/29 08:56:27;;;;;;;5.88;4.50;;;;;;;16.55;51.12;95683.03;5091520;28;20248;-63
2021/04/29 08:58:55;;;;;;;5.18;4.63;;;;;;;16.42;52.27;95689.06;5075474;28;20701;-63
2021/04/29 09:01:22;;;;;;;4.85;4.32;;;;;;;16.39;51.92;95692.28;5078364;28;20250;-63
2021/04/29 09:03:47;;;;;;;6.60;4.63;;;;;;;16.71;51.42;95689.66;5093703;28;20278;-62
2021/04/29 09:06:13;;;;;;;5.10;4.07;;;;;;;16.97;51.07;95696.06;5092980;28;20160;-62
2021/04/29 09:08:41;;;;;;;6.40;4.05;;;;;;;17.07;50.68;95695.06;5093691;28;20206;-62
2021/04/29 09:11:08;;;;;;;6.75;4.43;;;;;;;16.78;50.79;95689.25;5092403;28;20179;-61
2021/04/29 09:13:34;;;;;;;4.85;4.00;;;;;;;16.89;50.34;95688.00;5093006;28;20193;-61
2021/04/29 09:16:10;;;;;;;6.03;4.40;;;;;;;16.84;50.57;95691.53;5092885;28;20181;-61
2021/04/29 09:18:36;;;;;;;5.07;4.15;;;;;;;16.78;51.02;95692.69;5093525;28;20703;-61
2021/04/29 09:21:07;;;;;;;4.32;3.92;;;;;;;16.55;51.69;95681.16;5092947;28;20291;-62
2021/04/29 09:23:36;;;;;;;4.15;3.75;;;;;;;16.52;51.43;95688.91;5094380;28;20200;-61
2021/04/29 09:26:07;;;;;;;4.55;4.05;;;;;;;16.33;51.63;95693.47;5093313;28;20180;-62
2021/04/29 09:28:38;;;;;;;4.10;3.70;;;;;;;16.02;51.77;95693.94;5093472;28;20169;-62
2021/04/29 09:31:25;;;;;;;5.40;3.70;;;;;;;16.08;51.75;95697.28;5092666;28;20168;-62
2021/04/29 09:33:54;;;;;;;6.22;3.97;;;;;;;15.86;52.63;95699.72;5093402;28;20246;-62
2021/04/29 09:36:26;;;;;;;4.30;3.83;;;;;;;15.78;52.93;95709.84;5092866;28;20175;-62
2021/04/29 09:38:54;;;;;;;4.18;3.78;;;;;;;15.59;53.21;95706.44;5095522;28;20533;-63
2021/04/29 09:41:41;;;;;;;3.90;3.60;;;;;;;15.40;54.01;95714.28;5095142;28;20197;-61
2021/04/29 09:44:09;;;;;;;4.57;3.55;;;;;;;15.39;53.85;95720.63;5093164;28;20276;-63
2021/04/29 09:46:40;;;;;;;3.67;3.37;;;;;;;14.95;57.50;95734.06;5094292;28;20173;-62
2021/04/29 09:49:27;;;;;;;3.73;2.83;;;;;;;14.38;60.86;95734.03;5092593;28;20180;-61
2021/04/29 09:51:55;;;;;;;4.20;3.07;;;;;;;14.18;62.46;95727.06;5093903;28;20171;-61
2021/04/29 09:54:38;;;;;;;5.23;3.63;;;;;;;13.89;64.72;95742.78;5093336;28;20256;-63
2021/04/29 09:57:09;;;;;;;3.90;3.20;;;;;;;13.57;69.65;95727.44;5069654;28;20325;-62
2021/04/29 09:59:47;;;;;;;3.40;3.10;;;;;;;13.59;71.93;95729.81;5067192;28;20189;-62
2021/04/29 10:02:15;;;;;;;3.77;3.27;;;;;;;14.03;70.13;95719.28;5052911;28;20162;-63
2021/04/29 10:04:42;;;;;;;4.57;3.67;;;;;;;14.12;67.87;95714.97;5062119;28;20170;-63
2021/04/29 10:07:09;;;;;;;4.80;3.47;;;;;;;14.40;67.29;95709.00;5061096;28;20174;-62
2021/04/29 10:09:35;;;;;;;4.07;3.50;;;;;;;14.63;67.98;95711.97;5060937;28;20169;-62
2021/04/29 10:12:07;;;;;;;4.03;3.43;;;;;;;15.01;67.42;95710.25;5064453;28;20197;-61
2021/04/29 10:14:54;;;;;;;3.70;3.40;;;;;;;15.51;64.53;95706.22;5057751;28;20162;-61
2021/04/29 10:17:21;;;;;;;3.73;3.43;;;;;;;16.17;63.76;95712.19;5056760;28;20716;-62
2021/04/29 10:19:50;;;;;;;5.00;4.07;;;;;;;16.58;61.93;95707.03;5059946;28;20244;-62
2021/04/29 10:22:16;;;;;;;3.97;3.57;;;;;;;16.59;58.17;95697.28;5069520;28;20204;-62
2021/04/29 10:24:46;;;;;;;3.95;3.65;;;;;;;16.56;58.36;95701.25;5065619;28;20639;-63
2021/04/29 10:27:16;;;;;;;4.50;3.83;;;;;;;17.10;56.93;95707.75;5059501;28;20193;-63
2021/04/29 10:29:43;;;;;;;4.20;3.80;;;;;;;17.35;55.60;95709.09;5065920;28;20666;-63
2021/04/29 10:32:12;;;;;;;4.03;3.55;;;;;;;17.59;53.89;95699.06;5063964;28;20174;-63
2021/04/29 10:34:47;;;;;;;4.40;3.90;;;;;;;17.74;52.96;95709.38;5058219;28;20661;-63
2021/04/29 10:37:23;;;;;;;4.63;4.18;;;;;;;17.65;51.06;95702.44;5054533;28;20193;-65
2021/04/29 10:40:02;;;;;;;4.82;3.90;;;;;;;17.66;50.47;95702.13;5062261;28;20201;-63
2021/04/29 10:42:28;;;;;;;4.97;3.95;;;;;;;17.77;49.88;95697.41;5068663;28;20216;-63
2021/04/29 10:45:06;;;;;;;4.15;3.80;;;;;;;17.57;50.17;95703.88;5060674;28;20260;-62
2021/04/29 10:47:32;;;;;;;4.55;4.10;;;;;;;17.45;50.27;95703.59;5070080;28;20649;-62
2021/04/29 10:50:15;;;;;;;4.85;4.22;;;;;;;17.55;49.54;95695.44;5068087;28;20185;-61
2021/04/29 10:53:03;;;;;;;4.45;4.13;;;;;;;17.20;50.71;95701.47;5065154;28;20220;-62
2021/04/29 10:58:05;;;;;;;4.07;3.72;;;;;;;17.38;49.97;95704.00;5076028;28;20312;-61
2021/04/29 11:00:34;;;;;;;4.88;4.47;;;;;;;17.55;50.12;95703.41;5078485;28;20189;-62
2021/04/29 11:03:02;;;;;;;4.50;4.10;;;;;;;17.97;49.37;95704.88;5082481;28;20205;-62
2021/04/29 11:05:29;;;;;;;4.20;3.35;;;;;;;18.19;48.42;95704.91;5074012;28;20235;-62
2021/04/29 11:08:06;;;;;;;3.60;3.25;;;;;;;18.32;46.76;95707.81;5075999;28;20196;-64
2021/04/29 11:10:35;;;;;;;4.18;3.80;;;;;;;18.29;47.07;95709.97;5092915;28;20523;-62
2021/04/29 11:13:01;;;;;;;3.50;3.20;;;;;;;18.26;47.30;95709.78;5082901;28;20205;-62
2021/04/29 11:15:38;;;;;;;3.65;3.33;;;;;;;18.24;45.79;95714.63;5086100;28;20169;-62
2021/04/29 11:18:11;;;;;;;3.40;3.10;;;;;;;18.10;45.98;95717.31;5076552;28;20169;-61
2021/04/29 11:20:53;;;;;;;3.42;3.13;;;;;;;18.15;45.05;95711.91;5091577;28;20283;-62
2021/04/29 11:23:45;;;;;;;3.63;3.33;;;;;;;17.83;45.85;95725.38;5080615;28;20227;-63
2021/04/29 11:26:16;;;;;;;3.90;3.47;;;;;;;15.67;51.65;95720.84;5090005;28;20177;-63
2021/04/29 11:28:43;;;;;;;3.67;3.33;;;;;;;15.08;53.57;95724.69;5078016;28;20185;-62
2021/04/29 11:31:09;;;;;;;3.83;3.50;;;;;;;14.69;54.49;95729.31;5083605;28;20177;-62
2021/04/29 11:33:40;;;;;;;4.20;3.17;;;;;;;15.17;53.76;95722.22;5079229;28;20208;-63
2021/04/29 11:36:19;;;;;;;4.47;2.90;;;;;;;15.22;53.85;95732.72;5082176;28;20252;-65